Terminal Aerodrome Forecast
Issued by NWS Charleston, WV

Current Version | Previous Version | Text Only | Print | Product List | Glossary Off
Versions: 1 2 3 4 5 6 7 8 9 10 11 12 13 14 15 16 17 18 19 20 21 22 23

000
FTUS41 KRLX 231800 AAA
TAFHTS
TAF AMD
KHTS 231842Z 2319/2418 VRB03KT P6SM -RAPL BKN040
     FM232000 00000KT 5SM -RA BR OVC030
     FM232300 03004KT 3SM -RA BR OVC015
     FM240100 02005KT 2SM -RAPL BR OVC010
     FM240300 36006KT 2SM -SNPL BR OVC008
     FM240600 34006KT 2SM -SN BR OVC008
     FM241000 32005KT 4SM -SN BR BKN010
     FM241300 31005KT 6SM BR BKN010
     FM241700 26008KT P6SM SCT060=

USA.gov is the U.S. government's official web portal to all federal, state and local government web resources and services.